Terminal Aerodrome Forecast
Issued by NWS

Home | Current Version | Previous Version | Text Only | Print | Product List | Glossary On
Versions: 1 2 3 4 5 6 7 8 9 10 11 12 13 14 15 16 17 18 19
000
FTUS41 KBGM 271400 AAA
TAFRME
TAF AMD
KRME 271423Z 2714/2812 VRB03KT P6SM SCT015 BKN040
      TEMPO 2714/2717 5SM -SHSN BKN015
     FM280000 VRB03KT P6SM SCT050=

USA.gov is the U.S. government's official web portal to all federal, state and local government web resources and services.